createdAt,value
2017-05-22T00:00:19.906Z,53.44
2017-05-22T00:00:46.034Z,53.34
2017-05-22T00:01:12.147Z,53.15
2017-05-22T00:01:38.250Z,53.05
2017-05-22T00:02:04.386Z,53.24
2017-05-22T00:02:30.501Z,53.91
2017-05-22T00:02:56.624Z,54.01
2017-05-22T00:03:22.762Z,54.01
2017-05-22T00:03:48.927Z,53.91
2017-05-22T00:04:15.061Z,53.44
2017-05-22T00:04:41.177Z,53.91
2017-05-22T00:05:07.332Z,53.82
2017-05-22T00:05:33.465Z,54.3
2017-05-22T00:05:59.553Z,53.91
2017-05-22T00:06:25.651Z,54.01
2017-05-22T00:06:51.816Z,54.78
2017-05-22T00:07:17.931Z,54.46
2017-05-22T00:07:44.053Z,54.49
2017-05-22T00:08:10.215Z,54.39
2017-05-22T00:08:36.366Z,54.49
2017-05-22T00:09:02.504Z,54.49
2017-05-22T00:09:28.674Z,54.39
2017-05-22T00:09:54.799Z,54.58
2017-05-22T00:10:20.915Z,54.21
2017-05-22T00:10:47.050Z,54.58
2017-05-22T00:11:13.179Z,54.49
2017-05-22T00:11:39.320Z,54.39
2017-05-22T00:12:05.425Z,54.01
2017-05-22T00:12:31.560Z,54.68
2017-05-22T00:12:57.672Z,54.58
2017-05-22T00:13:23.822Z,54.78
2017-05-22T00:13:49.984Z,54.46
2017-05-22T00:14:16.104Z,54.37
2017-05-22T00:14:42.254Z,54.75
2017-05-22T00:15:08.411Z,54.68
2017-05-22T00:15:34.562Z,54.56
2017-05-22T00:16:00.670Z,54.66
2017-05-22T00:16:26.780Z,54.78
2017-05-22T00:16:52.883Z,54.68
2017-05-22T00:17:19.043Z,54.58
2017-05-22T00:17:45.194Z,54.3
2017-05-22T00:18:11.306Z,54.21
2017-05-22T00:18:37.441Z,54.21
2017-05-22T00:19:03.605Z,54.68
2017-05-22T00:19:29.727Z,54.58
2017-05-22T00:19:55.889Z,54.49
2017-05-22T00:20:21.985Z,54.78
2017-05-22T00:20:48.117Z,54.58
2017-05-22T00:21:14.236Z,54.68
2017-05-22T00:21:40.357Z,54.49
2017-05-22T00:22:06.490Z,54.68
2017-05-22T00:22:32.587Z,54.49
2017-05-22T00:22:58.703Z,54.78
2017-05-22T00:23:24.842Z,54.01
2017-05-22T00:23:50.967Z,54.3
2017-05-22T00:24:17.110Z,54.21
2017-05-22T00:24:43.219Z,54.17
2017-05-22T00:25:09.403Z,54.01
2017-05-22T00:25:35.517Z,54.08
2017-05-22T00:26:01.621Z,54.68
2017-05-22T00:26:27.735Z,54.56
2017-05-22T00:26:53.869Z,54.46
2017-05-22T00:27:19.994Z,54.75
2017-05-22T00:27:46.111Z,54.17
2017-05-22T00:28:12.246Z,54.46
2017-05-22T00:28:38.402Z,54.3
2017-05-22T00:29:04.570Z,54.78
2017-05-22T00:29:30.672Z,54.58
2017-05-22T00:29:56.832Z,54.3
2017-05-22T00:30:22.920Z,54.58
2017-05-22T00:30:49.045Z,54.68
2017-05-22T00:31:15.152Z,54.49
2017-05-22T00:31:41.267Z,54.46
2017-05-22T00:32:07.422Z,54.46
2017-05-22T00:32:33.536Z,54.46
2017-05-22T00:32:59.723Z,54.68
2017-05-22T00:33:25.887Z,54.56
2017-05-22T00:33:52.033Z,54.46
2017-05-22T00:34:18.142Z,54.08
2017-05-22T00:34:44.247Z,54.46
2017-05-22T00:35:10.340Z,54.08
2017-05-22T00:35:36.462Z,54.66
2017-05-22T00:36:02.569Z,54.37
2017-05-22T00:36:28.663Z,54.27
2017-05-22T00:36:54.755Z,54.75
2017-05-22T00:37:20.916Z,54.66
2017-05-22T00:37:47.017Z,55.23
2017-05-22T00:38:13.206Z,54.85
2017-05-22T00:38:39.375Z,55.13
2017-05-22T00:39:05.522Z,55.04
2017-05-22T00:39:31.683Z,55.52
2017-05-22T00:39:57.833Z,55.52
2017-05-22T00:40:23.947Z,55.52
2017-05-22T00:40:50.060Z,55.8
2017-05-22T00:41:16.185Z,55.62
2017-05-22T00:41:42.326Z,55.71
2017-05-22T00:42:08.484Z,55.52
2017-05-22T00:42:34.641Z,55.71
2017-05-22T00:43:00.740Z,55.49
2017-05-22T00:43:26.834Z,56.07
2017-05-22T00:43:52.951Z,55.9
2017-05-22T00:44:19.085Z,56
2017-05-22T00:44:45.210Z,56
2017-05-22T00:45:11.302Z,55.62
2017-05-22T00:45:37.433Z,55.8
2017-05-22T00:46:03.533Z,55.52
2017-05-22T00:46:29.650Z,55.52
2017-05-22T00:46:55.755Z,55.62
2017-05-22T00:47:21.864Z,55.49
2017-05-22T00:47:47.978Z,55.33
2017-05-22T00:48:14.127Z,55.68
2017-05-22T00:48:40.275Z,55.97
2017-05-22T00:49:06.435Z,55.87
2017-05-22T00:49:32.564Z,55.97
2017-05-22T00:49:58.704Z,56.26
2017-05-22T00:50:24.852Z,55.68
2017-05-22T00:50:50.958Z,56.16
2017-05-22T00:51:17.050Z,56.07
2017-05-22T00:51:43.150Z,55.78
2017-05-22T00:52:09.283Z,56.26
2017-05-22T00:52:35.398Z,56.54
2017-05-22T00:53:01.569Z,56.35
2017-05-22T00:53:27.729Z,56.45
2017-05-22T00:53:53.906Z,56.54
2017-05-22T00:54:19.998Z,56.83
2017-05-22T00:54:46.158Z,56.64
2017-05-22T00:55:12.280Z,56.35
2017-05-22T00:55:38.372Z,56.93
2017-05-22T00:56:04.502Z,56.64
2017-05-22T00:56:30.601Z,56.45
2017-05-22T00:56:56.692Z,56.64
2017-05-22T00:57:22.810Z,56.64
2017-05-22T00:57:48.974Z,56.64
2017-05-22T00:58:15.111Z,57.03
2017-05-22T00:58:41.240Z,57.31
2017-05-22T00:59:07.372Z,57.41
2017-05-22T00:59:33.512Z,57.31
2017-05-22T00:59:59.616Z,57.21
2017-05-22T01:00:25.731Z,57.28
2017-05-22T01:00:51.887Z,57.19
2017-05-22T01:01:17.994Z,57.57
2017-05-22T01:01:44.083Z,57.57
2017-05-22T01:02:10.181Z,57.95
2017-05-22T01:02:36.315Z,57.89
2017-05-22T01:03:02.505Z,57.38
2017-05-22T01:03:28.678Z,56.99
2017-05-22T01:03:54.840Z,57.6
2017-05-22T01:04:20.933Z,57.67
2017-05-22T01:04:47.072Z,57.19
2017-05-22T01:05:13.178Z,57.28
2017-05-22T01:05:39.295Z,57.86
2017-05-22T01:06:05.403Z,57.89
2017-05-22T01:06:31.495Z,57.48
2017-05-22T01:06:57.592Z,58.15
2017-05-22T01:07:23.752Z,57.48
2017-05-22T01:07:49.867Z,57.67
2017-05-22T01:08:15.981Z,57.38
2017-05-22T01:08:42.089Z,57.57
2017-05-22T01:09:08.196Z,56.99
2017-05-22T01:09:34.300Z,57.38
2017-05-22T01:10:00.462Z,58.05
2017-05-22T01:10:26.591Z,58.15
2017-05-22T01:10:52.742Z,57.28
2017-05-22T01:11:18.839Z,57.67
2017-05-22T01:11:44.977Z,57.86
2017-05-22T01:12:11.113Z,57.95
2017-05-22T01:12:37.261Z,57.67
2017-05-22T01:13:03.402Z,57.67
2017-05-22T01:13:29.568Z,57.76
2017-05-22T01:13:55.728Z,57.86
2017-05-22T01:14:21.844Z,57.86
2017-05-22T01:14:47.992Z,57.86
2017-05-22T01:15:14.125Z,57.76
2017-05-22T01:15:40.214Z,57.67
2017-05-22T01:16:06.364Z,57.76
2017-05-22T01:16:32.460Z,57.86
2017-05-22T01:16:58.618Z,57.89
2017-05-22T01:17:24.747Z,57.95
2017-05-22T01:17:50.837Z,57.19
2017-05-22T01:18:16.941Z,57.67
2017-05-22T01:18:43.088Z,57.38
2017-05-22T01:19:09.194Z,57.6
2017-05-22T01:19:35.347Z,57.21
2017-05-22T01:20:01.455Z,57.03
2017-05-22T01:20:27.545Z,57.41
2017-05-22T01:20:53.715Z,57.31
2017-05-22T01:21:19.848Z,57.31
2017-05-22T01:21:45.970Z,57.03
2017-05-22T01:22:12.074Z,57.03
2017-05-22T01:22:38.165Z,57.21
2017-05-22T01:23:04.317Z,57.41
2017-05-22T01:23:30.450Z,57.21
2017-05-22T01:23:56.620Z,57.79
2017-05-22T01:24:22.743Z,57.79
2017-05-22T01:24:48.905Z,57.6
2017-05-22T01:25:15.001Z,57.41
2017-05-22T01:25:41.094Z,57.6
2017-05-22T01:26:07.229Z,57.5
2017-05-22T01:26:33.325Z,57.98
2017-05-22T01:26:59.466Z,57.57
2017-05-22T01:27:25.573Z,58.05
2017-05-22T01:27:51.692Z,57.86
2017-05-22T01:28:17.827Z,57.95
2017-05-22T01:28:43.953Z,57.67
2017-05-22T01:29:10.092Z,57.48
2017-05-22T01:29:36.233Z,57.57
2017-05-22T01:30:02.356Z,57.86
2017-05-22T01:30:28.504Z,58.24
2017-05-22T01:30:54.549Z,58.62
2017-05-22T01:31:20.650Z,58.34
2017-05-22T01:31:46.764Z,58.15
2017-05-22T01:32:12.868Z,58.44
2017-05-22T01:32:38.975Z,58.24
2017-05-22T01:33:05.144Z,58.24
2017-05-22T01:33:31.242Z,58.15
2017-05-22T01:33:57.408Z,58.53
2017-05-22T01:34:23.570Z,58.34
2017-05-22T01:34:49.722Z,58.62
2017-05-22T01:35:15.839Z,58.34
2017-05-22T01:35:41.947Z,58.34
2017-05-22T01:36:08.090Z,58.53
2017-05-22T01:36:34.197Z,58.34
2017-05-22T01:37:00.298Z,58.24
2017-05-22T01:37:26.434Z,58.53
2017-05-22T01:37:52.604Z,58.72
2017-05-22T01:38:18.752Z,58.34
2017-05-22T01:38:44.888Z,57.95
2017-05-22T01:39:10.983Z,58.24
2017-05-22T01:39:37.102Z,58.44
2017-05-22T01:40:03.269Z,58.44
2017-05-22T01:40:29.365Z,58.05
2017-05-22T01:40:55.485Z,58.44
2017-05-22T01:41:21.644Z,58.24
2017-05-22T01:41:47.801Z,58.05
2017-05-22T01:42:13.890Z,58.24
2017-05-22T01:42:40.045Z,58.44
2017-05-22T01:43:06.151Z,58.44
2017-05-22T01:43:32.289Z,58.15
2017-05-22T01:43:58.463Z,58.05
2017-05-22T01:44:24.608Z,58.24
2017-05-22T01:44:50.767Z,58.34
2017-05-22T01:45:16.867Z,58.34
2017-05-22T01:45:42.958Z,58.53
2017-05-22T01:46:09.116Z,58.44
2017-05-22T01:46:35.222Z,58.91
2017-05-22T01:47:01.333Z,58.62
2017-05-22T01:47:27.456Z,58.62
2017-05-22T01:47:53.590Z,58.81
2017-05-22T01:48:19.726Z,58.91
2017-05-22T01:48:45.848Z,58.81
2017-05-22T01:49:12.011Z,58.62
2017-05-22T01:49:38.130Z,58.91
2017-05-22T01:50:04.315Z,59.01
2017-05-22T01:50:30.454Z,58.53
2017-05-22T01:50:56.556Z,58.53
2017-05-22T01:51:22.694Z,58.53
2017-05-22T01:51:48.857Z,58.44
2017-05-22T01:52:14.953Z,58.44
2017-05-22T01:52:41.088Z,58.62
2017-05-22T01:53:07.257Z,58.91
2017-05-22T01:53:33.399Z,58.72
2017-05-22T01:53:59.565Z,58.81
2017-05-22T01:54:25.664Z,58.72
2017-05-22T01:54:51.777Z,59.01
2017-05-22T01:55:17.936Z,59.77
2017-05-22T01:55:44.054Z,58.91
2017-05-22T01:56:10.192Z,58.81
2017-05-22T01:56:36.287Z,58.91
2017-05-22T01:57:02.404Z,58.53
2017-05-22T01:57:28.592Z,58.62
2017-05-22T01:57:54.772Z,58.91
2017-05-22T01:58:20.865Z,59.11
2017-05-22T01:58:46.970Z,58.91
2017-05-22T01:59:13.096Z,58.81
2017-05-22T01:59:39.212Z,59.01
2017-05-22T02:00:05.343Z,59.01
2017-05-22T02:00:31.479Z,59.48
2017-05-22T02:00:57.597Z,59.48
2017-05-22T02:01:23.722Z,59.48
2017-05-22T02:01:49.836Z,58.91
2017-05-22T02:02:15.972Z,59.48
2017-05-22T02:02:42.156Z,59.3
2017-05-22T02:03:08.367Z,59.3
2017-05-22T02:03:34.470Z,59.39
2017-05-22T02:04:00.599Z,59.58
2017-05-22T02:04:26.684Z,59.58
2017-05-22T02:04:52.811Z,59.68
2017-05-22T02:05:18.917Z,59.2
2017-05-22T02:05:45.032Z,59.39
2017-05-22T02:06:11.279Z,59.27
2017-05-22T02:06:37.378Z,59.3
2017-05-22T02:07:03.479Z,59.55
2017-05-22T02:07:29.614Z,59.3
2017-05-22T02:07:55.703Z,59.3
2017-05-22T02:08:21.827Z,59.68
2017-05-22T02:08:47.987Z,59.48
2017-05-22T02:09:14.155Z,59.2
2017-05-22T02:09:40.303Z,59.39
2017-05-22T02:10:06.435Z,59.58
2017-05-22T02:10:32.528Z,59.3
2017-05-22T02:10:58.621Z,59.11
2017-05-22T02:11:24.757Z,58.91
2017-05-22T02:11:50.877Z,58.53
2017-05-22T02:12:16.982Z,59.01
2017-05-22T02:12:43.098Z,58.53
2017-05-22T02:13:09.221Z,58.53
2017-05-22T02:13:35.386Z,58.53
2017-05-22T02:14:01.552Z,58.62
2017-05-22T02:14:27.636Z,58.53
2017-05-22T02:14:53.772Z,58.24
2017-05-22T02:15:19.871Z,58.34
2017-05-22T02:15:45.961Z,58.15
2017-05-22T02:16:12.095Z,58.53
2017-05-22T02:16:38.193Z,58.15
2017-05-22T02:17:04.310Z,58.44
2017-05-22T02:17:30.416Z,58.44
2017-05-22T02:17:56.583Z,58.53
2017-05-22T02:18:22.746Z,58.34
2017-05-22T02:18:48.874Z,58.24
2017-05-22T02:19:14.966Z,58.62
2017-05-22T02:19:41.101Z,58.81
2017-05-22T02:20:07.228Z,58.81
2017-05-22T02:20:33.343Z,58.72
2017-05-22T02:20:59.475Z,58.81
2017-05-22T02:21:25.912Z,59.11
2017-05-22T02:21:52.079Z,59.48
2017-05-22T02:22:18.201Z,59.3
2017-05-22T02:22:44.306Z,59.2
2017-05-22T02:23:10.425Z,59.39
2017-05-22T02:23:36.568Z,59.68
2017-05-22T02:24:02.727Z,59.97
2017-05-22T02:24:28.820Z,59.77
2017-05-22T02:24:54.936Z,59.94
2017-05-22T02:25:21.075Z,59.75
2017-05-22T02:25:47.198Z,59.55
2017-05-22T02:26:13.313Z,59.77
2017-05-22T02:26:39.446Z,59.84
2017-05-22T02:27:05.576Z,59.55
2017-05-22T02:27:31.668Z,60.16
2017-05-22T02:27:57.785Z,60.22
2017-05-22T02:28:23.920Z,60.13
2017-05-22T02:28:50.039Z,60.44
2017-05-22T02:29:16.136Z,60.25
2017-05-22T02:29:42.250Z,59.48
2017-05-22T02:30:08.384Z,59.68
2017-05-22T02:30:34.512Z,59.77
2017-05-22T02:31:00.604Z,59.68
2017-05-22T02:31:26.735Z,59.77
2017-05-22T02:31:52.897Z,59.97
2017-05-22T02:32:19.008Z,59.39
2017-05-22T02:32:45.107Z,59.48
2017-05-22T02:33:11.214Z,59.3
2017-05-22T02:33:37.332Z,59.58
2017-05-22T02:34:03.453Z,59.48
2017-05-22T02:34:29.603Z,59.58
2017-05-22T02:34:55.734Z,59.58
2017-05-22T02:35:24.874Z,59.48
2017-05-22T02:35:50.988Z,59.77
2017-05-22T02:36:17.139Z,58.72
2017-05-22T02:36:43.275Z,58.44
2017-05-22T02:37:09.369Z,58.91
2017-05-22T02:37:35.489Z,59.01
2017-05-22T02:38:01.598Z,58.44
2017-05-22T02:38:27.690Z,58.91
2017-05-22T02:38:53.807Z,58.62
2017-05-22T02:39:19.940Z,58.53
2017-05-22T02:39:46.037Z,58.91
2017-05-22T02:40:12.215Z,58.53
2017-05-22T02:40:38.360Z,58.81
2017-05-22T02:41:04.457Z,58.91
2017-05-22T02:41:30.594Z,58.44
2017-05-22T02:41:56.714Z,58.34
2017-05-22T02:42:22.827Z,58.44
2017-05-22T02:42:48.993Z,58.24
2017-05-22T02:43:15.144Z,58.24
2017-05-22T02:43:41.234Z,58.53
2017-05-22T02:44:07.370Z,58.08
2017-05-22T02:44:33.499Z,58.65
2017-05-22T02:44:59.640Z,58.17
2017-05-22T02:45:25.744Z,58.27
2017-05-22T02:45:51.834Z,58.17
2017-05-22T02:46:17.944Z,57.95
2017-05-22T02:46:44.043Z,58.17
2017-05-22T02:47:10.205Z,58.27
2017-05-22T02:47:36.339Z,58.27
2017-05-22T02:48:02.466Z,58.27
2017-05-22T02:48:28.588Z,57.57
2017-05-22T02:48:54.689Z,58.27
2017-05-22T02:49:20.794Z,58.65
2017-05-22T02:49:46.905Z,58.17
2017-05-22T02:50:13.061Z,57.6
2017-05-22T02:50:39.220Z,57.79
2017-05-22T02:51:05.360Z,58.27
2017-05-22T02:51:31.491Z,57.79
2017-05-22T02:51:57.583Z,57.7
2017-05-22T02:52:23.688Z,57.7
2017-05-22T02:52:49.821Z,57.7
2017-05-22T02:53:15.935Z,57.7
2017-05-22T02:53:42.062Z,57.7
2017-05-22T02:54:08.287Z,57.6
2017-05-22T02:54:34.424Z,57.79
2017-05-22T02:55:00.595Z,58.46
2017-05-22T02:55:26.728Z,58.27
2017-05-22T02:55:52.850Z,57.98
2017-05-22T02:56:18.993Z,58.44
2017-05-22T02:56:45.096Z,58.05
2017-05-22T02:57:11.198Z,58.05
2017-05-22T02:57:37.334Z,58.15
2017-05-22T02:58:03.453Z,58.24
2017-05-22T02:58:29.553Z,58.34
2017-05-22T02:58:55.711Z,58.24
2017-05-22T02:59:21.752Z,58.44
2017-05-22T02:59:47.845Z,58.72
2017-05-22T03:00:14.039Z,58.72
2017-05-22T03:00:40.164Z,58.72
2017-05-22T03:01:06.331Z,59.11
2017-05-22T03:01:32.439Z,58.81
2017-05-22T03:01:58.539Z,59.01
2017-05-22T03:02:24.639Z,58.91
2017-05-22T03:02:50.786Z,58.72
2017-05-22T03:03:16.876Z,58.72
2017-05-22T03:03:43.015Z,58.81
2017-05-22T03:04:09.140Z,58.72
2017-05-22T03:04:35.280Z,59.39
2017-05-22T03:05:01.414Z,59.58
2017-05-22T03:05:27.514Z,59.3
2017-05-22T03:05:53.654Z,59.48
2017-05-22T03:06:19.808Z,59.58
2017-05-22T03:06:45.916Z,59.58
2017-05-22T03:07:12.002Z,59.36
2017-05-22T03:07:38.105Z,59.39
2017-05-22T03:08:04.237Z,59.3
2017-05-22T03:08:30.355Z,59.58
2017-05-22T03:08:56.477Z,59.58
2017-05-22T03:09:22.639Z,59.3
2017-05-22T03:09:48.787Z,59.48
2017-05-22T03:10:14.878Z,59.48
2017-05-22T03:10:41.011Z,59.45
2017-05-22T03:11:07.134Z,59.3
2017-05-22T03:11:33.250Z,59.48
2017-05-22T03:11:59.412Z,59.87
2017-05-22T03:12:25.512Z,59.2
2017-05-22T03:12:51.631Z,59.3
2017-05-22T03:13:17.815Z,59.39
2017-05-22T03:13:43.985Z,59.39
2017-05-22T03:14:10.119Z,59.2
2017-05-22T03:14:36.294Z,59.3
2017-05-22T03:15:02.458Z,59.58
2017-05-22T03:15:28.591Z,59.48
2017-05-22T03:15:54.718Z,59.48
2017-05-22T03:16:20.810Z,59.48
2017-05-22T03:16:46.914Z,59.48
2017-05-22T03:17:13.050Z,59.11
2017-05-22T03:17:39.137Z,59.2
2017-05-22T03:18:05.284Z,59.48
2017-05-22T03:18:31.419Z,59.68
2017-05-22T03:18:57.532Z,59.3
2017-05-22T03:19:23.664Z,59.2
2017-05-22T03:19:49.807Z,59.2
2017-05-22T03:20:15.931Z,59.48
2017-05-22T03:20:42.038Z,59.58
2017-05-22T03:21:08.130Z,59.39
2017-05-22T03:21:34.251Z,59.39
2017-05-22T03:22:00.359Z,59.75
2017-05-22T03:22:26.450Z,60.13
2017-05-22T03:22:52.572Z,60.51
2017-05-22T03:23:18.711Z,60.32
2017-05-22T03:23:44.803Z,60.61
2017-05-22T03:24:10.967Z,61.08
2017-05-22T03:24:37.129Z,60.89
2017-05-22T03:25:03.307Z,61.15
2017-05-22T03:25:29.442Z,61.25
2017-05-22T03:25:55.561Z,61.72
2017-05-22T03:26:21.658Z,61.91
2017-05-22T03:26:47.791Z,62.11
2017-05-22T03:27:13.888Z,62.49
2017-05-22T03:27:40.004Z,62.11
2017-05-22T03:28:06.143Z,62.59
2017-05-22T03:28:32.271Z,62.77
2017-05-22T03:28:58.435Z,62.77
2017-05-22T03:29:24.568Z,62.77
2017-05-22T03:29:50.666Z,63.35
2017-05-22T03:30:16.760Z,62.77
2017-05-22T03:30:42.889Z,63.26
2017-05-22T03:31:09.019Z,63.06
2017-05-22T03:31:35.109Z,63.64
2017-05-22T03:32:01.210Z,63.06
2017-05-22T03:32:27.344Z,63.26
2017-05-22T03:32:53.514Z,63.26
2017-05-22T03:33:19.636Z,62.77
2017-05-22T03:33:45.741Z,63.06
2017-05-22T03:34:11.862Z,63.06
2017-05-22T03:34:38.001Z,62.87
2017-05-22T03:35:04.164Z,63.06
2017-05-22T03:35:30.284Z,63.26
2017-05-22T03:35:56.442Z,63.06
2017-05-22T03:36:22.532Z,63.16
2017-05-22T03:36:48.653Z,62.97
2017-05-22T03:37:14.757Z,62.77
2017-05-22T03:37:40.876Z,62.87
2017-05-22T03:38:07.042Z,63.16
2017-05-22T03:38:33.237Z,62.77
2017-05-22T03:38:59.412Z,62.2
2017-05-22T03:39:25.502Z,62.11
2017-05-22T03:39:51.609Z,62.11
2017-05-22T03:40:17.737Z,62.2
2017-05-22T03:40:43.829Z,62.2
2017-05-22T03:41:09.931Z,62.43
2017-05-22T03:41:36.044Z,62.68
2017-05-22T03:42:02.233Z,62.68
2017-05-22T03:42:28.360Z,62.49
2017-05-22T03:42:54.476Z,62.49
2017-05-22T03:43:20.581Z,62.49
2017-05-22T03:43:46.707Z,62.2
2017-05-22T03:44:12.853Z,62.4
2017-05-22T03:44:38.992Z,62.59
2017-05-22T03:45:06.403Z,62.3
2017-05-22T03:45:33.148Z,62.11
2017-05-22T03:46:00.575Z,62.68
2017-05-22T03:46:27.827Z,62.97
2017-05-22T03:46:55.240Z,62.97
2017-05-22T03:47:22.372Z,63.26
2017-05-22T03:47:48.512Z,63.26
2017-05-22T03:48:14.666Z,63.16
2017-05-22T03:48:40.802Z,63.64
2017-05-22T03:49:06.942Z,63.45
2017-05-22T03:49:33.091Z,63.83
2017-05-22T03:49:59.280Z,63.73
2017-05-22T03:50:25.370Z,63.83
2017-05-22T03:50:51.495Z,63.73
2017-05-22T03:51:17.634Z,63.83
2017-05-22T03:51:43.754Z,63.83
2017-05-22T03:52:09.895Z,63.73
2017-05-22T03:52:36.029Z,63.93
2017-05-22T03:53:02.175Z,63.93
2017-05-22T03:53:28.291Z,63.99
2017-05-22T03:53:54.425Z,63.89
2017-05-22T03:54:20.553Z,63.99
2017-05-22T03:54:46.671Z,63.89
2017-05-22T03:55:12.856Z,63.99
2017-05-22T03:55:38.962Z,64.56
2017-05-22T03:56:05.048Z,64.37
2017-05-22T03:56:31.146Z,64.37
2017-05-22T03:56:57.553Z,64.28
2017-05-22T03:57:23.643Z,64.37
2017-05-22T03:57:49.765Z,65.14
2017-05-22T03:58:15.890Z,64.56
2017-05-22T03:58:42.019Z,64.95
2017-05-22T03:59:08.161Z,64.75
2017-05-22T03:59:34.269Z,64.85
2017-05-22T04:00:00.394Z,65.04
2017-05-22T04:00:26.501Z,64.75
2017-05-22T04:00:52.615Z,64.75
2017-05-22T04:01:18.712Z,65.33
2017-05-22T04:01:44.818Z,65.71
2017-05-22T04:02:10.938Z,65.33
2017-05-22T04:02:37.052Z,65.71
2017-05-22T04:03:03.215Z,65.71
2017-05-22T04:03:29.367Z,65.71
2017-05-22T04:03:55.523Z,65.61
2017-05-22T04:04:21.614Z,65.42
2017-05-22T04:04:47.710Z,65.52
2017-05-22T04:05:13.903Z,65.42
2017-05-22T04:05:39.995Z,65.52
2017-05-22T04:06:06.086Z,65.23
2017-05-22T04:06:32.197Z,65.52
2017-05-22T04:06:58.294Z,65.42
2017-05-22T04:07:24.411Z,65.71
2017-05-22T04:07:50.542Z,66.09
2017-05-22T04:08:16.670Z,66.09
2017-05-22T04:08:42.734Z,65.61
2017-05-22T04:09:08.883Z,66
2017-05-22T04:09:35.028Z,66.09
2017-05-22T04:10:01.185Z,66
2017-05-22T04:10:27.278Z,65.81
2017-05-22T04:10:53.369Z,66.09
2017-05-22T04:11:19.533Z,65.81
2017-05-22T04:11:45.632Z,65.81
2017-05-22T04:12:11.848Z,66
2017-05-22T04:12:37.954Z,66.19
2017-05-22T04:13:04.102Z,65.9
2017-05-22T04:13:30.213Z,65.9
2017-05-22T04:13:56.337Z,65.9
2017-05-22T04:14:22.467Z,65.61
2017-05-22T04:14:48.631Z,65.9
2017-05-22T04:15:14.763Z,65.61
2017-05-22T04:15:40.855Z,66
2017-05-22T04:16:06.983Z,65.33
2017-05-22T04:16:33.090Z,65.9
2017-05-22T04:16:59.202Z,66.09
2017-05-22T04:17:25.353Z,65.61
2017-05-22T04:17:51.511Z,65.61
2017-05-22T04:18:17.632Z,66
2017-05-22T04:18:43.728Z,65.9
2017-05-22T04:19:09.863Z,66.19
2017-05-22T04:19:35.957Z,65.71
2017-05-22T04:20:02.096Z,65.81
2017-05-22T04:20:28.227Z,66.09
2017-05-22T04:20:54.329Z,66
2017-05-22T04:21:20.432Z,65.61
2017-05-22T04:21:46.524Z,65.33
2017-05-22T04:22:12.642Z,65.42
2017-05-22T04:22:38.750Z,65.42
2017-05-22T04:23:04.867Z,65.42
2017-05-22T04:23:30.961Z,65.42
2017-05-22T04:23:57.072Z,65.33
2017-05-22T04:24:23.195Z,65.61
2017-05-22T04:24:49.311Z,65.81
2017-05-22T04:25:15.475Z,65.52
2017-05-22T04:25:41.633Z,65.9
2017-05-22T04:26:07.784Z,65.42
2017-05-22T04:26:33.879Z,65.81
2017-05-22T04:26:59.969Z,65.81
2017-05-22T04:27:26.079Z,65.42
2017-05-22T04:27:52.253Z,65.42
2017-05-22T04:28:18.392Z,65.14
2017-05-22T04:28:44.552Z,65.36
2017-05-22T04:29:10.708Z,65.23
2017-05-22T04:29:36.799Z,65.14
2017-05-22T04:30:02.957Z,64.75
2017-05-22T04:30:29.093Z,65.04
2017-05-22T04:30:55.255Z,65.81
2017-05-22T04:31:21.406Z,65.9
2017-05-22T04:31:47.524Z,65.52
2017-05-22T04:32:13.659Z,65.61
2017-05-22T04:32:39.789Z,65.52
2017-05-22T04:33:05.954Z,65.23
2017-05-22T04:33:32.085Z,65.14
2017-05-22T04:33:58.247Z,65.9
2017-05-22T04:34:24.361Z,65.61
2017-05-22T04:34:50.510Z,65.9
2017-05-22T04:35:16.642Z,66.09
2017-05-22T04:35:42.732Z,66
2017-05-22T04:36:08.876Z,65.61
2017-05-22T04:36:34.982Z,65.42
2017-05-22T04:37:01.075Z,65.74
2017-05-22T04:37:27.165Z,65.26
2017-05-22T04:37:53.273Z,64.85
2017-05-22T04:38:19.449Z,65.26
2017-05-22T04:38:45.566Z,65.26
2017-05-22T04:39:11.674Z,65.26
2017-05-22T04:39:37.827Z,64.75
2017-05-22T04:40:03.941Z,65.08
2017-05-22T04:40:30.071Z,64.85
2017-05-22T04:40:56.177Z,64.95
2017-05-22T04:41:22.264Z,65.71
2017-05-22T04:41:48.417Z,65.52
2017-05-22T04:42:14.522Z,65.42
2017-05-22T04:42:40.642Z,65.61
2017-05-22T04:43:06.796Z,65.52
2017-05-22T04:43:32.911Z,65.52
2017-05-22T04:43:59.043Z,65.52
2017-05-22T04:44:25.176Z,65.23
2017-05-22T04:44:51.313Z,65.42
2017-05-22T04:45:17.410Z,65.61
2017-05-22T04:45:43.544Z,65.52
2017-05-22T04:46:09.661Z,65.33
2017-05-22T04:46:35.758Z,65.52
2017-05-22T04:47:01.865Z,65.36
2017-05-22T04:47:27.985Z,65.9
2017-05-22T04:47:54.103Z,64.88
2017-05-22T04:48:20.252Z,64.69
2017-05-22T04:48:46.377Z,64.98
2017-05-22T04:49:12.536Z,64.98
2017-05-22T04:49:38.646Z,64.22
2017-05-22T04:50:04.792Z,64.22
2017-05-22T04:50:30.929Z,64.12
2017-05-22T04:50:57.021Z,63.73
2017-05-22T04:51:23.110Z,63.73
2017-05-22T04:51:49.220Z,63.93
2017-05-22T04:52:15.341Z,63.83
2017-05-22T04:52:41.482Z,63.83
2017-05-22T04:53:07.641Z,63.39
2017-05-22T04:53:33.800Z,64.05
2017-05-22T04:53:59.922Z,63.39
2017-05-22T04:54:26.014Z,63.29
2017-05-22T04:54:52.133Z,63
2017-05-22T04:55:18.268Z,63
2017-05-22T04:55:44.361Z,63.1
2017-05-22T04:56:10.477Z,63
2017-05-22T04:56:36.584Z,62.9
2017-05-22T04:57:02.712Z,62.71
2017-05-22T04:57:28.851Z,62.71
2017-05-22T04:57:55.033Z,62.81
2017-05-22T04:58:21.167Z,62.71
2017-05-22T04:58:47.280Z,62.71
2017-05-22T04:59:13.432Z,62.81
2017-05-22T04:59:39.553Z,63.19
2017-05-22T05:00:05.687Z,63.29
2017-05-22T05:00:31.788Z,62.71
2017-05-22T05:00:57.879Z,63.1
2017-05-22T05:01:23.981Z,63.29
2017-05-22T05:01:50.114Z,63.16
2017-05-22T05:02:16.201Z,63.26
2017-05-22T05:02:42.326Z,63.93
2017-05-22T05:03:08.459Z,63.73
2017-05-22T05:03:34.577Z,64.02
2017-05-22T05:04:00.700Z,64.12
2017-05-22T05:04:26.864Z,63.73
2017-05-22T05:04:52.980Z,64.02
2017-05-22T05:05:19.113Z,64.02
2017-05-22T05:05:45.253Z,64.02
2017-05-22T05:06:11.355Z,63.54
2017-05-22T05:06:37.460Z,63.73
2017-05-22T05:07:03.551Z,63.93
2017-05-22T05:07:29.650Z,63.83
2017-05-22T05:07:55.784Z,64.69
2017-05-22T05:08:21.900Z,63.93
2017-05-22T05:08:47.993Z,63.93
2017-05-22T05:09:14.131Z,63.54
2017-05-22T05:09:40.228Z,63.45
2017-05-22T05:10:06.393Z,63.93
2017-05-22T05:10:32.528Z,64.22
2017-05-22T05:10:58.620Z,64.12
2017-05-22T05:11:24.729Z,64.02
2017-05-22T05:11:50.821Z,63.57
2017-05-22T05:12:16.913Z,64.15
2017-05-22T05:12:43.181Z,63.67
2017-05-22T05:13:09.276Z,63.86
2017-05-22T05:13:35.365Z,63.96
2017-05-22T05:14:01.505Z,64.05
2017-05-22T05:14:27.684Z,64.05
2017-05-22T05:14:53.800Z,63.76
2017-05-22T05:15:19.903Z,64.43
2017-05-22T05:15:46.010Z,63.76
2017-05-22T05:16:12.106Z,63.48
2017-05-22T05:16:38.203Z,63.76
2017-05-22T05:17:04.325Z,63.76
2017-05-22T05:17:30.482Z,63.57
2017-05-22T05:17:56.636Z,63.29
2017-05-22T05:18:22.751Z,63
2017-05-22T05:18:48.912Z,63.19
2017-05-22T05:19:15.044Z,63.19
2017-05-22T05:19:41.131Z,63
2017-05-22T05:20:07.774Z,62.81
2017-05-22T05:20:33.818Z,62.81
2017-05-22T05:20:59.933Z,62.14
2017-05-22T05:21:26.028Z,62.71
2017-05-22T05:21:52.197Z,62.9
2017-05-22T05:22:18.292Z,62.71
2017-05-22T05:22:44.385Z,62.71
2017-05-22T05:23:10.524Z,62.62
2017-05-22T05:23:36.650Z,62.62
2017-05-22T05:24:02.766Z,62.14
2017-05-22T05:24:28.927Z,62.65
2017-05-22T05:24:55.054Z,62.17
2017-05-22T05:25:21.197Z,62.23
2017-05-22T05:25:47.300Z,62.14
2017-05-22T05:26:13.459Z,62.84
2017-05-22T05:26:39.548Z,62.23
2017-05-22T05:27:05.646Z,63.1
2017-05-22T05:27:31.742Z,62.23
2017-05-22T05:27:57.880Z,62.62
2017-05-22T05:28:24.008Z,62.71
2017-05-22T05:28:50.099Z,62.62
2017-05-22T05:29:16.252Z,63
2017-05-22T05:29:42.389Z,63
2017-05-22T05:30:08.581Z,62.71
2017-05-22T05:30:34.682Z,63.1
2017-05-22T05:31:00.844Z,63
2017-05-22T05:31:27.009Z,62.65
2017-05-22T05:31:53.108Z,62.84
2017-05-22T05:32:19.216Z,62.55
2017-05-22T05:32:45.312Z,62.36
2017-05-22T05:33:11.419Z,62.26
2017-05-22T05:33:37.559Z,62.26
2017-05-22T05:34:03.735Z,62.36
2017-05-22T05:34:29.927Z,62.26
2017-05-22T05:34:56.007Z,62.46
2017-05-22T05:35:22.156Z,62.65
2017-05-22T05:35:48.263Z,62.46
2017-05-22T05:36:14.385Z,62.26
2017-05-22T05:36:40.476Z,62.07
2017-05-22T05:37:06.583Z,61.98
2017-05-22T05:37:32.705Z,62.07
2017-05-22T05:37:58.846Z,62.17
2017-05-22T05:38:25.006Z,61.88